createdAt,value
2022-11-02T00:01:09.663Z,8.32
2022-11-02T00:03:37.478Z,8.22
2022-11-02T00:06:05.359Z,8.11
2022-11-02T00:08:33.090Z,8.07
2022-11-02T00:11:02.191Z,8.09
2022-11-02T00:13:29.969Z,8.03
2022-11-02T00:15:58.093Z,7.97
2022-11-02T00:18:25.913Z,7.99
2022-11-02T00:20:53.746Z,8.02
2022-11-02T00:23:21.514Z,8.05
2022-11-02T00:25:51.182Z,8.04
2022-11-02T00:28:20.391Z,8.10
2022-11-02T00:30:48.777Z,8.16
2022-11-02T00:33:16.652Z,8.21
2022-11-02T00:35:45.711Z,8.22
2022-11-02T00:38:13.973Z,8.26
2022-11-02T00:40:41.737Z,8.27
2022-11-02T00:43:09.462Z,8.27
2022-11-02T00:45:38.576Z,8.30
2022-11-02T00:48:07.234Z,8.36
2022-11-02T00:50:35.216Z,8.40
2022-11-02T00:53:04.037Z,8.42
2022-11-02T00:55:31.975Z,8.46
2022-11-02T00:58:04.100Z,8.46
2022-11-02T01:00:32.419Z,8.47
2022-11-02T01:03:02.630Z,8.46
2022-11-02T01:05:30.657Z,8.44
2022-11-02T01:07:58.347Z,8.44
2022-11-02T01:10:27.471Z,8.42
2022-11-02T01:12:55.199Z,8.38
2022-11-02T01:15:22.942Z,8.38
2022-11-02T01:17:50.935Z,8.37
2022-11-02T01:20:20.494Z,8.38
2022-11-02T01:22:48.241Z,8.38
2022-11-02T01:25:16.004Z,8.40
2022-11-02T01:27:43.726Z,8.43
2022-11-02T01:30:13.691Z,8.48
2022-11-02T01:32:41.450Z,8.52
2022-11-02T01:35:10.307Z,8.55
2022-11-02T01:37:41.228Z,8.60
2022-11-02T01:40:10.740Z,8.62
2022-11-02T01:42:38.479Z,8.62
2022-11-02T01:45:07.848Z,8.63
2022-11-02T01:47:39.122Z,8.66
2022-11-02T01:50:11.454Z,8.66
2022-11-02T01:52:41.317Z,8.65
2022-11-02T01:55:13.634Z,8.66
2022-11-02T01:57:44.711Z,8.66
2022-11-02T02:00:16.374Z,8.66
2022-11-02T02:02:50.241Z,8.68
2022-11-02T02:05:20.520Z,8.65
2022-11-02T02:07:51.527Z,8.66
2022-11-02T02:10:19.658Z,8.67
2022-11-02T02:12:48.388Z,8.65
2022-11-02T02:15:23.807Z,8.66
2022-11-02T02:17:57.055Z,8.65
2022-11-02T02:20:42.913Z,8.63
2022-11-02T02:23:34.930Z,8.63
2022-11-02T02:26:32.331Z,8.59
2022-11-02T02:29:04.777Z,8.59
2022-11-02T02:31:37.991Z,8.62
2022-11-02T02:34:11.739Z,8.72
2022-11-02T02:39:25.333Z,8.85
2022-11-02T02:41:59.324Z,8.90
2022-11-02T02:44:35.826Z,8.95
2022-11-02T02:47:07.624Z,8.96
2022-11-02T02:49:41.564Z,8.96
2022-11-02T02:52:10.813Z,8.95
2022-11-02T02:54:42.650Z,8.93
2022-11-02T02:57:13.916Z,8.87
2022-11-02T02:59:44.807Z,8.80
2022-11-02T03:02:18.589Z,8.73
2022-11-02T03:04:46.517Z,8.71
2022-11-02T03:07:20.010Z,8.69
2022-11-02T03:09:53.165Z,8.67
2022-11-02T03:12:27.990Z,8.64
2022-11-02T03:15:10.359Z,8.60
2022-11-02T03:17:53.779Z,8.63
2022-11-02T03:20:30.318Z,8.59
2022-11-02T03:23:09.542Z,8.57
2022-11-02T03:25:48.758Z,8.53
2022-11-02T03:28:23.020Z,8.50
2022-11-02T03:30:59.836Z,8.46
2022-11-02T03:33:34.746Z,8.43
2022-11-02T03:36:10.170Z,8.39
2022-11-02T03:38:44.891Z,8.38
2022-11-02T03:41:16.551Z,8.36
2022-11-02T03:43:47.709Z,8.35
2022-11-02T03:46:19.907Z,8.35
2022-11-02T03:48:51.151Z,8.34
2022-11-02T03:51:23.720Z,8.32
2022-11-02T03:53:57.770Z,8.32
2022-11-02T03:56:29.102Z,8.35
2022-11-02T03:58:57.877Z,8.32
2022-11-02T04:01:28.648Z,8.30
2022-11-02T04:03:57.716Z,8.24
2022-11-02T04:06:27.279Z,8.21
2022-11-02T04:08:55.128Z,8.18
2022-11-02T04:11:40.628Z,8.15
2022-11-02T04:14:25.383Z,8.14
2022-11-02T04:17:15.572Z,8.02
2022-11-02T04:19:49.803Z,7.95
2022-11-02T04:22:36.823Z,7.92
2022-11-02T04:25:21.973Z,8.01
2022-11-02T04:28:10.120Z,7.88
2022-11-02T04:31:00.761Z,7.85
2022-11-02T04:33:33.632Z,7.86
2022-11-02T04:36:21.643Z,7.85
2022-11-02T04:38:53.196Z,7.84
2022-11-02T04:41:44.046Z,7.80
2022-11-02T04:44:20.831Z,7.76
2022-11-02T04:46:57.519Z,7.76
2022-11-02T04:49:29.556Z,7.75
2022-11-02T04:51:57.391Z,7.75
2022-11-02T04:54:26.293Z,7.75
2022-11-02T04:56:58.249Z,7.74
2022-11-02T04:59:27.307Z,7.74
2022-11-02T05:01:55.140Z,7.67
2022-11-02T05:04:25.580Z,7.63
2022-11-02T05:07:00.286Z,7.60
2022-11-02T05:09:29.457Z,7.57
2022-11-02T05:11:57.636Z,7.56
2022-11-02T05:14:26.058Z,7.55
2022-11-02T05:16:54.313Z,7.54
2022-11-02T05:19:22.119Z,7.48
2022-11-02T05:21:50.586Z,7.44
2022-11-02T05:24:20.162Z,7.41
2022-11-02T05:26:52.965Z,7.39
2022-11-02T05:29:23.842Z,7.38
2022-11-02T05:31:53.183Z,7.37
2022-11-02T05:34:21.172Z,7.36
2022-11-02T05:36:49.878Z,7.40
2022-11-02T05:39:17.803Z,7.38
2022-11-02T05:41:47.288Z,7.34
2022-11-02T05:44:15.442Z,7.34
2022-11-02T05:46:44.425Z,7.32
2022-11-02T05:49:12.129Z,7.31
2022-11-02T05:51:39.861Z,7.36
2022-11-02T05:54:07.575Z,7.31
2022-11-02T05:56:35.374Z,7.21
2022-11-02T05:59:04.521Z,7.22
2022-11-02T06:01:32.665Z,7.25
2022-11-02T06:04:00.434Z,7.18
2022-11-02T06:06:28.141Z,7.13
2022-11-02T06:08:55.905Z,7.14
2022-11-02T06:11:23.631Z,7.14
2022-11-02T06:13:52.529Z,7.14
2022-11-02T06:16:23.317Z,7.13
2022-11-02T06:18:51.885Z,7.20
2022-11-02T06:21:19.653Z,7.17
2022-11-02T06:23:48.484Z,7.13
2022-11-02T06:26:16.649Z,7.11
2022-11-02T06:28:44.363Z,7.13
2022-11-02T06:31:12.617Z,7.11
2022-11-02T06:33:42.080Z,7.14
2022-11-02T06:36:10.386Z,7.22
2022-11-02T06:38:39.470Z,7.30
2022-11-02T06:41:07.425Z,7.35
2022-11-02T06:43:38.500Z,7.42
2022-11-02T06:46:07.203Z,7.49
2022-11-02T06:48:35.857Z,7.59
2022-11-02T06:51:06.352Z,7.70
2022-11-02T06:53:34.536Z,7.72
2022-11-02T06:56:02.474Z,7.73
2022-11-02T06:58:30.925Z,7.75
2022-11-02T07:01:00.675Z,7.85
2022-11-02T07:03:28.892Z,7.92
2022-11-02T07:05:57.073Z,8.00
2022-11-02T07:08:27.223Z,8.08
2022-11-02T07:10:55.271Z,8.15
2022-11-02T07:13:23.121Z,8.24
2022-11-02T07:15:53.131Z,8.29
2022-11-02T07:18:21.225Z,8.41
2022-11-02T07:20:49.344Z,8.49
2022-11-02T07:23:17.055Z,8.57
2022-11-02T07:25:46.097Z,8.63
2022-11-02T07:28:13.821Z,8.68
2022-11-02T07:30:41.674Z,8.73
2022-11-02T07:33:09.430Z,8.78
2022-11-02T07:35:37.215Z,8.84
2022-11-02T07:38:06.579Z,8.89
2022-11-02T07:40:36.275Z,8.97
2022-11-02T07:43:06.550Z,9.03
2022-11-02T07:45:49.437Z,9.11
2022-11-02T07:48:17.144Z,9.18
2022-11-02T07:50:44.881Z,9.27
2022-11-02T07:53:12.971Z,9.34
2022-11-02T07:55:41.378Z,9.43
2022-11-02T07:58:14.020Z,9.52
2022-11-02T08:00:43.017Z,9.59
2022-11-02T08:03:12.723Z,9.64
2022-11-02T08:05:42.780Z,9.71
2022-11-02T08:08:13.895Z,9.78
2022-11-02T08:10:42.847Z,9.86
2022-11-02T08:13:14.166Z,9.93
2022-11-02T08:15:42.287Z,10.09
2022-11-02T08:18:14.862Z,10.25
2022-11-02T08:20:42.834Z,10.53
2022-11-02T08:23:11.430Z,10.67
2022-11-02T08:25:40.444Z,10.79
2022-11-02T08:28:11.642Z,10.91
2022-11-02T08:30:40.963Z,11.13
2022-11-02T08:33:11.610Z,11.26
2022-11-02T08:35:39.416Z,11.34
2022-11-02T08:38:08.258Z,11.49
2022-11-02T08:40:37.138Z,11.62
2022-11-02T08:43:07.042Z,11.69
2022-11-02T08:46:08.304Z,11.79
2022-11-02T08:48:25.201Z,11.95
2022-11-02T08:50:53.234Z,12.01
2022-11-02T08:53:20.930Z,12.12
2022-11-02T08:55:48.681Z,12.23
2022-11-02T08:58:16.434Z,12.33
2022-11-02T09:00:44.894Z,12.43
2022-11-02T09:03:14.916Z,12.53
2022-11-02T09:05:45.295Z,12.58
2022-11-02T09:08:14.791Z,12.63
2022-11-02T09:10:42.850Z,12.62
2022-11-02T09:13:13.297Z,12.63
2022-11-02T09:15:41.682Z,12.73
2022-11-02T09:18:09.784Z,12.71
2022-11-02T09:20:38.407Z,12.73
2022-11-02T09:23:07.677Z,12.72
2022-11-02T09:25:35.426Z,12.75
2022-11-02T09:28:03.126Z,12.73
2022-11-02T09:30:30.886Z,12.76
2022-11-02T09:32:59.746Z,12.79
2022-11-02T09:35:29.897Z,12.83
2022-11-02T09:37:58.417Z,12.86
2022-11-02T09:40:29.504Z,12.90
2022-11-02T09:43:07.182Z,13.00
2022-11-02T09:45:37.785Z,13.12
2022-11-02T09:48:17.660Z,13.19
2022-11-02T09:50:55.310Z,13.26
2022-11-02T09:53:32.526Z,13.38
2022-11-02T09:56:03.067Z,13.45
2022-11-02T09:58:35.432Z,13.46
2022-11-02T10:01:15.533Z,13.48
2022-11-02T10:03:58.083Z,13.53
2022-11-02T10:06:26.803Z,13.65
2022-11-02T10:09:05.284Z,13.72
2022-11-02T10:11:44.861Z,13.78
2022-11-02T10:14:17.622Z,13.75
2022-11-02T10:16:51.121Z,13.74
2022-11-02T10:19:24.993Z,13.78
2022-11-02T10:21:59.177Z,13.72
2022-11-02T10:24:33.230Z,13.74
2022-11-02T10:27:09.038Z,13.79
2022-11-02T10:29:46.486Z,13.70
2022-11-02T10:32:15.911Z,13.64
2022-11-02T10:34:54.149Z,13.65
2022-11-02T10:37:49.449Z,13.64
2022-11-02T10:40:31.557Z,13.67
2022-11-02T10:43:12.319Z,13.67
2022-11-02T10:46:13.267Z,13.70
2022-11-02T10:48:52.460Z,13.74
2022-11-02T10:51:21.893Z,13.71
2022-11-02T10:53:52.153Z,13.77
2022-11-02T10:56:21.695Z,13.85
2022-11-02T10:59:00.153Z,13.77
2022-11-02T11:01:29.189Z,13.79
2022-11-02T11:03:59.229Z,13.78
2022-11-02T11:06:30.102Z,13.73
2022-11-02T11:09:04.304Z,13.76
2022-11-02T11:11:35.607Z,13.89
2022-11-02T11:19:50.626Z,14.04
2022-11-02T11:22:29.558Z,14.08
2022-11-02T11:25:27.103Z,14.15
2022-11-02T11:27:57.363Z,14.18
2022-11-02T11:33:18.773Z,14.30
2022-11-02T11:35:50.581Z,14.41
2022-11-02T11:38:21.742Z,14.40
2022-11-02T11:40:53.850Z,14.41
2022-11-02T11:43:24.935Z,14.42
2022-11-02T11:46:04.917Z,14.50
2022-11-02T11:48:38.986Z,14.57
2022-11-02T11:51:25.607Z,14.62
2022-11-02T11:54:20.250Z,14.60
2022-11-02T11:56:49.190Z,14.68
2022-11-02T11:59:29.731Z,14.67
2022-11-02T12:02:00.878Z,14.65
2022-11-02T12:04:31.151Z,14.70
2022-11-02T12:07:24.464Z,14.77
2022-11-02T12:10:06.892Z,14.78
2022-11-02T12:12:48.455Z,14.76
2022-11-02T12:15:29.481Z,14.85
2022-11-02T12:18:15.405Z,14.87
2022-11-02T12:20:56.484Z,14.78
2022-11-02T12:23:47.181Z,14.84
2022-11-02T12:26:27.095Z,14.82
2022-11-02T12:29:07.390Z,14.87
2022-11-02T12:31:39.286Z,14.91
2022-11-02T12:34:22.805Z,14.94
2022-11-02T12:40:04.880Z,15.02
2022-11-02T12:42:39.268Z,15.07
2022-11-02T12:45:22.838Z,15.11
2022-11-02T12:47:57.814Z,15.13
2022-11-02T12:50:51.728Z,15.18
2022-11-02T12:53:35.982Z,15.17
2022-11-02T12:56:06.408Z,15.21
2022-11-02T12:58:37.998Z,15.17
2022-11-02T13:01:13.832Z,15.17
2022-11-02T13:03:50.240Z,15.11
2022-11-02T13:06:25.443Z,15.14
2022-11-02T13:08:58.273Z,15.08
2022-11-02T13:11:32.083Z,15.07
2022-11-02T13:14:01.414Z,15.07
2022-11-02T13:16:39.559Z,15.15
2022-11-02T13:19:15.614Z,15.27
2022-11-02T13:21:49.822Z,15.17
2022-11-02T13:24:20.180Z,15.24
2022-11-02T13:26:57.081Z,15.23
2022-11-02T13:29:36.012Z,15.13
2022-11-02T13:32:10.114Z,15.12
2022-11-02T13:34:42.229Z,15.18
2022-11-02T13:37:19.088Z,15.13
2022-11-02T13:39:51.798Z,15.18
2022-11-02T13:42:44.290Z,15.10
2022-11-02T13:45:36.979Z,15.04
2022-11-02T13:48:19.292Z,15.00
2022-11-02T13:50:51.655Z,14.97
2022-11-02T13:53:27.377Z,14.90
2022-11-02T13:55:58.393Z,14.86
2022-11-02T13:58:28.661Z,14.83
2022-11-02T14:01:02.316Z,14.83
2022-11-02T14:03:34.322Z,14.83
2022-11-02T14:06:10.366Z,14.82
2022-11-02T14:08:42.476Z,14.82
2022-11-02T14:11:36.991Z,14.86
2022-11-02T14:14:26.322Z,14.81
2022-11-02T14:17:12.123Z,14.67
2022-11-02T14:19:55.812Z,14.64
2022-11-02T14:22:24.183Z,14.58
2022-11-02T14:24:56.600Z,14.61
2022-11-02T14:27:31.569Z,14.66
2022-11-02T14:29:59.904Z,14.67
2022-11-02T14:32:50.372Z,14.66
2022-11-02T14:35:39.750Z,14.64
2022-11-02T14:38:29.105Z,14.54
2022-11-02T14:41:11.883Z,14.44
2022-11-02T14:43:59.541Z,14.38
2022-11-02T14:46:47.365Z,14.24
2022-11-02T14:49:22.028Z,14.16
2022-11-02T14:52:03.895Z,14.12
2022-11-02T14:54:35.293Z,14.10
2022-11-02T14:57:08.334Z,14.02
2022-11-02T14:59:45.798Z,13.93
2022-11-02T15:02:21.264Z,13.87
2022-11-02T15:04:52.070Z,13.79
2022-11-02T15:07:23.090Z,13.73
2022-11-02T15:09:59.549Z,13.73
2022-11-02T15:12:38.651Z,13.64
2022-11-02T15:15:32.162Z,13.56
2022-11-02T15:18:23.171Z,13.47
2022-11-02T15:21:29.873Z,13.38
2022-11-02T15:24:21.030Z,13.32
2022-11-02T15:26:52.185Z,13.23
2022-11-02T15:29:40.328Z,13.13
2022-11-02T15:32:19.588Z,13.05
2022-11-02T15:34:51.876Z,12.95
2022-11-02T15:37:23.439Z,12.83
2022-11-02T15:39:52.777Z,12.81
2022-11-02T15:42:30.668Z,12.71
2022-11-02T15:45:42.096Z,12.53
2022-11-02T15:48:21.754Z,12.40
2022-11-02T15:51:00.526Z,12.33
2022-11-02T15:53:40.475Z,12.29
2022-11-02T15:56:26.326Z,12.04
2022-11-02T15:59:14.177Z,11.93
2022-11-02T16:01:43.899Z,11.82
2022-11-02T16:04:23.590Z,11.70
2022-11-02T16:06:51.349Z,11.61
2022-11-02T16:09:32.480Z,11.49
2022-11-02T16:12:04.993Z,11.34
2022-11-02T16:14:33.193Z,11.24
2022-11-02T16:17:02.369Z,11.16
2022-11-02T16:19:30.104Z,11.08
2022-11-02T16:22:01.296Z,10.99
2022-11-02T16:24:29.696Z,10.92
2022-11-02T16:26:57.614Z,10.83
2022-11-02T16:29:31.433Z,10.72
2022-11-02T16:31:59.312Z,10.67
2022-11-02T16:34:31.892Z,10.65
2022-11-02T16:37:07.341Z,10.53
2022-11-02T16:39:42.057Z,10.42
2022-11-02T16:42:16.170Z,10.39
2022-11-02T16:47:19.417Z,10.25
2022-11-02T16:50:00.884Z,10.17
2022-11-02T16:52:32.808Z,10.14
2022-11-02T16:55:01.109Z,10.10
2022-11-02T16:57:31.734Z,10.08
2022-11-02T17:00:01.798Z,10.09
2022-11-02T17:02:36.494Z,10.06
2022-11-02T17:05:08.178Z,10.06
2022-11-02T17:07:40.115Z,9.99
2022-11-02T17:10:10.400Z,9.88
2022-11-02T17:12:41.604Z,9.81
2022-11-02T17:15:16.989Z,9.70
2022-11-02T17:17:44.887Z,9.65
2022-11-02T17:20:20.832Z,9.60
2022-11-02T17:22:55.467Z,9.49
2022-11-02T17:25:26.053Z,9.43
2022-11-02T17:27:55.562Z,9.34
2022-11-02T17:30:45.853Z,9.29
2022-11-02T17:33:23.675Z,9.26
2022-11-02T17:35:54.501Z,9.17
2022-11-02T17:38:25.894Z,9.17
2022-11-02T17:40:53.962Z,9.19
2022-11-02T17:43:21.826Z,9.25
2022-11-02T17:45:55.871Z,9.27
2022-11-02T17:48:24.501Z,9.27
2022-11-02T17:50:55.594Z,9.24
2022-11-02T17:53:24.416Z,9.19
2022-11-02T17:55:53.701Z,9.11
2022-11-02T17:58:21.467Z,9.09
2022-11-02T18:00:54.031Z,9.06
2022-11-02T18:03:25.488Z,8.98
2022-11-02T18:06:00.289Z,8.88
2022-11-02T18:08:51.370Z,8.88
2022-11-02T18:11:24.876Z,8.83
2022-11-02T18:13:53.903Z,8.78
2022-11-02T18:16:21.882Z,8.74
2022-11-02T18:18:49.685Z,8.68
2022-11-02T18:21:21.793Z,8.68
2022-11-02T18:23:49.588Z,8.62
2022-11-02T18:26:20.510Z,8.53
2022-11-02T18:28:48.251Z,8.51
2022-11-02T18:31:16.016Z,8.50
2022-11-02T18:33:44.341Z,8.53
2022-11-02T18:36:12.579Z,8.55
2022-11-02T18:38:42.232Z,8.56
2022-11-02T18:41:25.325Z,8.51
2022-11-02T18:43:53.406Z,8.40
2022-11-02T18:46:21.121Z,8.30
2022-11-02T18:48:49.157Z,8.18
2022-11-02T18:51:16.903Z,8.15
2022-11-02T18:53:46.077Z,8.08
2022-11-02T18:56:13.908Z,8.02
2022-11-02T18:58:41.661Z,8.09
2022-11-02T19:01:11.543Z,8.09
2022-11-02T19:03:39.597Z,8.10
2022-11-02T19:06:25.451Z,8.13
2022-11-02T19:09:11.989Z,8.05
2022-11-02T19:11:39.854Z,7.82
2022-11-02T19:14:08.467Z,7.74
2022-11-02T19:16:36.243Z,7.73
2022-11-02T19:19:04.112Z,7.76
2022-11-02T19:21:31.911Z,7.76
2022-11-02T19:24:01.054Z,7.74
2022-11-02T19:26:28.813Z,7.70
2022-11-02T19:28:58.771Z,7.67
2022-11-02T19:31:27.878Z,7.65
2022-11-02T19:33:55.774Z,7.71
2022-11-02T19:36:23.596Z,7.65
2022-11-02T19:38:51.318Z,7.56
2022-11-02T19:41:21.612Z,7.51
2022-11-02T19:43:49.342Z,7.58
2022-11-02T19:46:19.035Z,7.51
2022-11-02T19:48:47.285Z,7.53
2022-11-02T19:51:19.264Z,7.58
2022-11-02T19:53:50.665Z,7.60
2022-11-02T19:56:20.947Z,7.64
2022-11-02T19:58:50.256Z,7.60
2022-11-02T20:01:19.391Z,7.61
2022-11-02T20:03:47.706Z,7.56
2022-11-02T20:06:17.199Z,7.49
2022-11-02T20:08:45.151Z,7.42
2022-11-02T20:11:14.984Z,7.37
2022-11-02T20:13:46.009Z,7.39
2022-11-02T20:16:15.864Z,7.42
2022-11-02T20:18:44.930Z,7.42
2022-11-02T20:21:15.205Z,7.37
2022-11-02T20:23:44.030Z,7.37
2022-11-02T20:26:13.295Z,7.35
2022-11-02T20:28:44.149Z,7.25
2022-11-02T20:31:15.159Z,7.16
2022-11-02T20:33:43.556Z,7.00
2022-11-02T20:36:11.781Z,6.96
2022-11-02T20:38:40.149Z,7.00
2022-11-02T20:41:09.633Z,7.01
2022-11-02T20:43:38.491Z,6.92
2022-11-02T20:49:08.521Z,6.85
2022-11-02T20:51:48.085Z,6.79
2022-11-02T20:54:18.261Z,6.77
2022-11-02T20:56:46.108Z,6.79
2022-11-02T20:59:13.971Z,6.82
2022-11-02T21:01:41.933Z,6.87
2022-11-02T21:04:16.906Z,6.80
2022-11-02T21:06:48.308Z,6.85
2022-11-02T21:09:16.155Z,6.84
2022-11-02T21:12:01.251Z,6.85
2022-11-02T21:14:29.207Z,6.88
2022-11-02T21:16:56.975Z,6.92
2022-11-02T21:19:26.561Z,6.93
2022-11-02T21:21:59.440Z,6.83
2022-11-02T21:24:28.296Z,6.82
2022-11-02T21:26:56.072Z,6.84
2022-11-02T21:29:24.097Z,6.85
2022-11-02T21:31:51.874Z,6.81
2022-11-02T21:34:19.663Z,6.81
2022-11-02T21:36:49.887Z,6.72
2022-11-02T21:39:17.927Z,6.59
2022-11-02T21:41:45.678Z,6.67
2022-11-02T21:44:13.514Z,6.58
2022-11-02T21:46:41.301Z,6.52
2022-11-02T21:49:09.242Z,6.53
2022-11-02T21:51:38.387Z,6.54
2022-11-02T21:54:07.636Z,6.48
2022-11-02T21:56:36.065Z,6.38
2022-11-02T21:59:05.212Z,6.31
2022-11-02T22:01:46.930Z,6.17
2022-11-02T22:04:19.381Z,6.08
2022-11-02T22:06:47.100Z,6.01
2022-11-02T22:09:16.184Z,5.98
2022-11-02T22:11:46.710Z,5.99
2022-11-02T22:14:14.348Z,6.04
2022-11-02T22:16:44.286Z,6.07
2022-11-02T22:19:13.538Z,6.12
2022-11-02T22:21:43.735Z,6.17
2022-11-02T22:24:12.488Z,6.14
2022-11-02T22:26:42.086Z,6.18
2022-11-02T22:29:10.287Z,6.16
2022-11-02T22:31:40.125Z,6.03
2022-11-02T22:34:10.260Z,5.92
2022-11-02T22:36:39.876Z,5.76
2022-11-02T22:39:09.310Z,5.71
2022-11-02T22:41:38.903Z,5.70
2022-11-02T22:44:09.892Z,5.73
2022-11-02T22:46:40.857Z,5.80
2022-11-02T22:49:10.075Z,5.78
2022-11-02T22:51:39.396Z,5.78
2022-11-02T22:54:08.963Z,5.82
2022-11-02T22:56:37.212Z,5.90
2022-11-02T22:59:05.950Z,5.88
2022-11-02T23:01:36.592Z,5.88
2022-11-02T23:04:05.467Z,5.84
2022-11-02T23:06:33.725Z,5.82
2022-11-02T23:09:02.124Z,5.72
2022-11-02T23:11:31.110Z,5.69
2022-11-02T23:14:00.553Z,5.73
2022-11-02T23:16:30.911Z,5.73
2022-11-02T23:19:27.341Z,5.77
2022-11-02T23:22:15.706Z,5.74
2022-11-02T23:25:02.837Z,5.74
2022-11-02T23:27:31.733Z,5.72
2022-11-02T23:30:16.832Z,5.74
2022-11-02T23:32:44.582Z,5.74
2022-11-02T23:35:30.918Z,5.74
2022-11-02T23:38:04.168Z,5.70
2022-11-02T23:40:32.507Z,5.67
2022-11-02T23:43:00.409Z,5.58
2022-11-02T23:45:28.130Z,5.55
2022-11-02T23:48:00.856Z,5.49
2022-11-02T23:50:50.565Z,5.38
2022-11-02T23:53:38.286Z,5.31
2022-11-02T23:56:25.002Z,5.27
2022-11-02T23:59:06.387Z,5.23
